Accueil
METAR-TAF:

METAR-TAF

Aéroports :

Damas, Syrie

Aéroport international de Damas

latitude: 33-25N, longitude: 036-31E, altitude: 608 m

Observation

Le bulletin a été fait il y a 1 heure et 3 minutes, à 18:00 UTC
Vent 14 kt de sud-ouest
Température 15°C
Humidité 51%
Pression 1017 hPa
Visibilité 10 km ou plus
pas de nuages en-dessous de 1500 mètres et pas de cumulonimbus.

METAR: OSDI 241800Z 22014KT CAVOK 15/05 Q1017

Heure: 22:03 (19:03 UTC)

Prévision

Le bulletin a été fait il y a 3 heures et 3 minutes, à 16:00 UTC
Prévision valable du 24 à 18 UTC au 25 à 24 UTC
Vent 10 kt de sud/sud-ouest
Visibilité 10 km ou plus
pas de nuages en-dessous de 1500 mètres et pas de cumulonimbus.
Temporairement
du 25 à 09 UTC au 25 à 18 UTC
Vent 10 kt de ouest/sud-ouest avec des rafales jusqu'à 20 kt
Visibilité 10 km ou plus
Quelques nuages à une hauteur de 3000 ft

TAF: OSDI 241600Z 2418/2524 21010KT CAVOK TEMPO 2509/2518 24010G20KT 9999 FEW030

Observations et prévisions météorologiques de plus de 4000 aéroports (messages METAR et TAF).

Les stations disponibles sont représentées par des disques jaunes et rouges sur la carte.

Passer la souris dessus pour voir le nom de la station.

Cliquer dessus pour voir les observations et prévisions météorologiques.

Pour changer de carte: cliquez sur les boutons verts avec une croix noire pour zoomer, sur le bouton vert avec un tiret pour effectuer un zoom arrière, ou sur les flèches vertes pour les cartes adjacentes.


METAR-TAF: